Time;durP1;ratioP1;P1;durP2;ratioP2;P2;SDS_P1;SDS_P2;PMS_P1;PMS_P2;Temp;Humidity;BMP_temperature;BMP_pressure;BME280_temperature;BME280_humidity;BME280_pressure;Samples;Min_cycle;Max_cycle;Signal;HPM_P1;HPM_P2
2022/03/28 00:02:00;;;;;;;14.57;9.15;;;12.50;50.00;;;;;;5068459;28;21513;-57
2022/03/28 00:04:26;;;;;;;15.00;9.20;;;12.40;49.90;;;;;;5064174;28;20491;-58
2022/03/28 00:06:52;;;;;;;16.95;8.82;;;12.40;50.10;;;;;;5071064;28;20090;-56
2022/03/28 00:09:17;;;;;;;16.48;9.57;;;12.30;50.30;;;;;;5051405;28;20040;-54
2022/03/28 00:11:43;;;;;;;18.35;8.70;;;12.30;50.50;;;;;;5053166;28;20533;-54
2022/03/28 00:14:09;;;;;;;13.05;9.18;;;12.20;50.50;;;;;;5052992;28;20366;-57
2022/03/28 00:16:35;;;;;;;16.60;9.20;;;12.20;50.80;;;;;;5052591;28;20368;-55
2022/03/28 00:19:00;;;;;;;14.23;8.85;;;12.10;50.80;;;;;;5052450;28;20409;-54
2022/03/28 00:21:26;;;;;;;18.30;9.15;;;12.10;51.00;;;;;;5071522;28;20422;-54
2022/03/28 00:23:52;;;;;;;16.35;8.75;;;12.10;51.20;;;;;;5051939;28;20028;-57
2022/03/28 00:26:18;;;;;;;12.20;8.63;;;12.00;51.40;;;;;;5065645;28;20131;-56
2022/03/28 00:28:44;;;;;;;14.75;9.02;;;12.00;51.50;;;;;;5070239;28;20024;-55
2022/03/28 00:31:10;;;;;;;17.33;8.55;;;12.00;51.60;;;;;;5070397;28;20028;-55
2022/03/28 00:33:36;;;;;;;14.25;8.52;;;11.90;51.70;;;;;;5070943;28;20033;-54
2022/03/28 00:36:02;;;;;;;14.60;9.13;;;11.90;51.80;;;;;;5070540;28;20036;-55
2022/03/28 00:38:28;;;;;;;25.73;9.05;;;11.80;51.70;;;;;;5053383;28;20039;-55
2022/03/28 00:40:53;;;;;;;15.07;8.43;;;11.80;51.80;;;;;;5069665;28;20032;-54
2022/03/28 00:43:19;;;;;;;14.05;8.77;;;11.80;51.70;;;;;;5070465;28;20029;-52
2022/03/28 00:45:45;;;;;;;14.32;8.98;;;11.80;51.60;;;;;;5053285;28;20044;-54
2022/03/28 00:48:11;;;;;;;12.43;8.60;;;11.80;51.60;;;;;;5070338;28;20111;-57
2022/03/28 00:50:38;;;;;;;12.07;8.05;;;11.80;51.60;;;;;;5053316;28;20036;-56
2022/03/28 00:53:06;;;;;;;13.02;8.48;;;11.80;51.70;;;;;;5070511;28;20028;-55
2022/03/28 00:55:33;;;;;;;16.83;8.55;;;11.80;51.70;;;;;;5051214;28;20554;-55
2022/03/28 00:57:58;;;;;;;13.70;8.55;;;11.80;51.60;;;;;;5070336;28;20512;-62
2022/03/28 01:00:24;;;;;;;14.15;8.27;;;11.80;51.50;;;;;;5070890;28;20524;-52
2022/03/28 01:02:51;;;;;;;11.23;7.32;;;11.80;51.50;;;;;;5071379;28;20099;-54
2022/03/28 01:05:17;;;;;;;15.68;7.95;;;11.80;51.50;;;;;;5069852;28;20032;-56
2022/03/28 01:07:43;;;;;;;13.32;8.25;;;11.80;51.50;;;;;;5070660;28;20024;-56
2022/03/28 01:10:10;;;;;;;14.02;7.90;;;11.90;51.40;;;;;;5069950;28;20020;-58
2022/03/28 01:12:38;;;;;;;18.02;8.68;;;11.80;51.20;;;;;;5068756;28;20025;-58
2022/03/28 01:15:05;;;;;;;10.95;7.53;;;11.90;51.20;;;;;;5052235;28;20079;-59
2022/03/28 01:20:15;;;;;;;15.10;8.23;;;11.80;51.10;;;;;;5074451;28;20043;-52
2022/03/28 01:22:41;;;;;;;11.73;7.72;;;11.80;51.10;;;;;;5071026;28;20032;-57
2022/03/28 01:25:08;;;;;;;12.82;8.10;;;11.70;51.20;;;;;;5061382;28;20028;-53
2022/03/28 01:27:37;;;;;;;11.80;7.53;;;11.70;51.30;;;;;;5071427;28;20036;-52
2022/03/28 01:30:05;;;;;;;12.63;7.47;;;11.60;51.40;;;;;;5048913;28;20032;-60
2022/03/28 01:32:31;;;;;;;11.90;6.95;;;11.60;51.40;;;;;;5056744;28;20032;-56
2022/03/28 01:34:57;;;;;;;12.27;7.65;;;11.50;51.50;;;;;;5073676;28;20036;-53
2022/03/28 01:37:23;;;;;;;13.18;8.13;;;11.50;51.60;;;;;;5055779;28;20024;-52
2022/03/28 01:39:49;;;;;;;14.85;8.35;;;11.50;51.60;;;;;;5074052;28;20066;-50
2022/03/28 01:42:14;;;;;;;15.45;7.97;;;11.50;51.70;;;;;;5073651;28;20024;-56
2022/03/28 01:44:40;;;;;;;15.13;8.00;;;11.50;51.80;;;;;;5069786;28;20033;-51
2022/03/28 01:47:06;;;;;;;14.82;8.65;;;11.40;51.80;;;;;;5055270;28;20024;-53
2022/03/28 01:49:31;;;;;;;13.50;8.48;;;11.40;51.90;;;;;;5065224;28;20039;-53
2022/03/28 01:51:57;;;;;;;14.13;7.97;;;11.40;52.00;;;;;;5069892;28;20536;-54
2022/03/28 01:54:23;;;;;;;10.82;7.95;;;11.40;51.90;;;;;;5055218;28;20606;-55
2022/03/28 01:56:48;;;;;;;12.55;8.48;;;11.40;52.00;;;;;;5059405;28;20053;-55
2022/03/28 01:59:14;;;;;;;13.25;8.07;;;11.40;52.00;;;;;;5055381;28;20483;-55
2022/03/28 02:01:40;;;;;;;13.30;8.23;;;11.40;52.00;;;;;;5072405;28;20024;-55
2022/03/28 02:04:05;;;;;;;12.90;7.95;;;11.50;52.10;;;;;;5073358;28;20075;-60
2022/03/28 02:06:35;;;;;;;12.88;8.23;;;11.40;52.10;;;;;;5074061;28;20032;-51
2022/03/28 02:09:02;;;;;;;13.60;7.50;;;11.50;52.10;;;;;;5073977;28;20033;-55
2022/03/28 02:11:28;;;;;;;12.90;8.02;;;11.40;52.00;;;;;;5055743;28;20025;-52
2022/03/28 02:13:54;;;;;;;15.25;7.80;;;11.50;52.10;;;;;;5074115;28;20021;-53
2022/03/28 02:16:20;;;;;;;20.33;8.52;;;11.40;52.00;;;;;;5072761;28;20439;-49
2022/03/28 02:18:46;;;;;;;12.30;8.70;;;11.40;52.10;;;;;;5072650;28;20540;-53
2022/03/28 02:21:12;;;;;;;12.25;8.43;;;11.50;52.20;;;;;;5072381;28;20024;-55
2022/03/28 02:23:37;;;;;;;12.75;8.10;;;11.40;52.10;;;;;;5072412;28;20033;-56
2022/03/28 02:26:04;;;;;;;14.82;8.25;;;11.50;52.10;;;;;;5072869;28;20378;-62
2022/03/28 02:28:30;;;;;;;12.70;8.00;;;11.50;52.10;;;;;;5054720;28;20489;-54
2022/03/28 02:30:56;;;;;;;15.48;8.18;;;11.50;52.10;;;;;;5073697;28;20464;-51
2022/03/28 02:33:22;;;;;;;13.02;8.48;;;11.50;52.00;;;;;;5071219;28;20466;-56
2022/03/28 02:35:48;;;;;;;13.25;7.68;;;11.50;52.00;;;;;;5071917;28;20408;-55
2022/03/28 02:38:14;;;;;;;12.70;7.20;;;11.50;52.00;;;;;;5053430;28;20033;-56
2022/03/28 02:40:40;;;;;;;12.45;6.18;;;11.40;49.30;;;;;;5073612;28;20069;-56
2022/03/28 02:43:06;;;;;;;10.80;6.38;;;11.30;48.00;;;;;;5072610;28;20132;-62
2022/03/28 02:45:35;;;;;;;11.55;5.57;;;11.30;46.90;;;;;;5054662;28;20509;-57
2022/03/28 02:48:01;;;;;;;8.75;5.10;;;11.30;46.50;;;;;;5072587;28;20025;-56
2022/03/28 02:50:45;;;;;;;11.07;6.07;;;11.30;45.50;;;;;;5071708;28;20040;-52
2022/03/28 02:53:11;;;;;;;;;;;11.20;44.50;;;;;;5054526;28;20056;-57
2022/03/28 02:55:38;;;;;;;12.38;5.07;;;11.20;44.00;;;;;;5055090;28;20365;-55
2022/03/28 02:58:04;;;;;;;12.65;4.85;;;11.20;44.10;;;;;;5072744;28;20058;-55
2022/03/28 03:00:30;;;;;;;9.52;5.43;;;11.10;43.90;;;;;;5072123;28;20090;-55
2022/03/28 03:02:56;;;;;;;10.07;5.43;;;11.10;43.40;;;;;;5071094;28;20028;-58
2022/03/28 03:05:23;;;;;;;14.27;5.50;;;11.10;43.10;;;;;;5071228;28;20032;-56
2022/03/28 03:07:49;;;;;;;10.35;4.88;;;11.00;42.90;;;;;;5072179;28;20036;-60
2022/03/28 03:10:15;;;;;;;11.13;5.20;;;11.00;42.70;;;;;;5071440;28;20532;-53
2022/03/28 03:12:41;;;;;;;10.98;4.93;;;11.00;42.60;;;;;;5054480;28;20124;-54
2022/03/28 03:15:07;;;;;;;11.82;5.18;;;10.90;41.40;;;;;;5072419;28;20036;-59
2022/03/28 03:17:33;;;;;;;10.73;4.82;;;10.90;41.50;;;;;;5072270;28;20112;-52
2022/03/28 03:22:43;;;;;;;11.40;4.93;;;10.90;41.40;;;;;;5070562;28;20055;-48
2022/03/28 03:25:09;;;;;;;9.68;5.25;;;11.00;41.20;;;;;;5072238;28;20465;-52
2022/03/28 03:27:37;;;;;;;10.45;4.88;;;11.00;41.80;;;;;;5037013;28;20032;-52
2022/03/28 03:30:06;;;;;;;8.52;4.60;;;10.90;41.00;;;;;;5051602;28;20116;-52
2022/03/28 03:32:32;;;;;;;10.75;5.18;;;10.90;41.10;;;;;;5069580;28;20535;-51
2022/03/28 03:34:57;;;;;;;14.38;4.95;;;10.90;41.30;;;;;;5071838;28;20024;-49
2022/03/28 03:37:23;;;;;;;11.32;5.07;;;10.90;41.30;;;;;;5052146;28;20071;-50
2022/03/28 03:39:49;;;;;;;12.32;4.70;;;10.90;41.40;;;;;;5068383;28;20405;-52
2022/03/28 03:42:15;;;;;;;8.23;5.47;;;10.90;41.50;;;;;;5070892;28;20431;-53
2022/03/28 03:44:40;;;;;;;13.15;5.50;;;10.80;41.60;;;;;;5071797;28;20032;-58
2022/03/28 03:47:06;;;;;;;12.05;5.10;;;10.80;41.90;;;;;;5071278;28;20030;-50
2022/03/28 03:49:32;;;;;;;8.23;5.30;;;10.80;42.00;;;;;;5062039;28;20035;-55
2022/03/28 03:51:58;;;;;;;12.00;5.45;;;10.80;42.10;;;;;;5070830;28;20392;-49
2022/03/28 03:54:23;;;;;;;12.05;5.60;;;10.80;42.20;;;;;;5071351;28;20024;-52
2022/03/28 03:56:49;;;;;;;11.15;5.43;;;10.80;42.40;;;;;;5071066;28;20059;-54
2022/03/28 03:59:15;;;;;;;10.13;5.85;;;10.70;42.70;;;;;;5053212;28;20490;-50
2022/03/28 04:01:41;;;;;;;12.88;6.18;;;10.70;43.10;;;;;;5071709;28;20358;-53
2022/03/28 04:04:06;;;;;;;13.60;5.80;;;10.60;43.30;;;;;;5051211;28;20024;-54
2022/03/28 04:06:32;;;;;;;13.38;5.60;;;10.60;44.20;;;;;;5066024;28;20028;-58
2022/03/28 04:08:58;;;;;;;11.75;5.88;;;10.60;44.10;;;;;;5071572;28;20111;-54
2022/03/28 04:11:24;;;;;;;10.65;5.78;;;10.50;44.30;;;;;;5070273;28;20028;-55
2022/03/28 04:13:50;;;;;;;11.77;5.47;;;10.60;44.40;;;;;;5069492;28;20037;-56
2022/03/28 04:16:15;;;;;;;11.95;6.55;;;10.50;44.60;;;;;;5052711;28;20036;-54
2022/03/28 04:18:42;;;;;;;13.57;6.10;;;10.50;44.70;;;;;;5071365;28;20032;-54
2022/03/28 04:21:08;;;;;;;11.60;5.88;;;10.50;44.70;;;;;;5053230;28;20029;-59
2022/03/28 04:23:34;;;;;;;17.70;7.13;;;10.60;44.70;;;;;;5052867;28;20175;-48
2022/03/28 04:25:59;;;;;;;14.10;6.20;;;10.60;44.60;;;;;;5071236;28;20469;-55
2022/03/28 04:28:25;;;;;;;17.70;6.85;;;10.60;44.60;;;;;;5052505;28;20465;-49
2022/03/28 04:30:51;;;;;;;17.63;6.50;;;10.70;44.60;;;;;;5052217;28;20028;-52
2022/03/28 04:33:17;;;;;;;16.38;6.80;;;10.70;44.60;;;;;;5070308;28;20063;-55
2022/03/28 04:35:43;;;;;;;23.48;6.85;;;10.60;44.70;;;;;;5053215;28;20044;-52
2022/03/28 04:38:09;;;;;;;18.30;7.25;;;10.60;44.70;;;;;;5070953;28;20131;-53
2022/03/28 04:40:36;;;;;;;18.02;7.72;;;10.60;47.20;;;;;;5064307;28;20100;-55
2022/03/28 04:43:02;;;;;;;18.13;7.35;;;10.60;48.10;;;;;;5070012;28;20032;-51
2022/03/28 04:45:30;;;;;;;13.25;7.75;;;10.60;48.90;;;;;;5068575;28;20083;-50
2022/03/28 04:47:58;;;;;;;15.95;7.38;;;10.70;49.30;;;;;;5070867;28;20102;-54
2022/03/28 04:50:25;;;;;;;14.63;7.75;;;10.60;49.50;;;;;;5069221;28;20024;-53
2022/03/28 04:52:50;;;;;;;25.70;8.02;;;10.70;49.70;;;;;;5070754;28;20033;-50
2022/03/28 04:55:16;;;;;;;18.10;8.13;;;10.70;50.00;;;;;;5069969;28;20132;-59
2022/03/28 04:57:42;;;;;;;23.33;7.65;;;10.70;50.10;;;;;;5070302;28;20385;-52
2022/03/28 05:00:10;;;;;;;15.40;7.55;;;10.70;50.20;;;;;;5071326;28;20071;-52
2022/03/28 05:02:36;;;;;;;17.08;8.23;;;10.70;50.50;;;;;;5069345;28;20095;-53
2022/03/28 05:05:06;;;;;;;15.55;8.23;;;10.70;50.80;;;;;;5067544;28;20078;-52
2022/03/28 05:07:32;;;;;;;16.08;8.55;;;10.60;50.90;;;;;;5052602;28;20437;-53
2022/03/28 05:10:01;;;;;;;18.77;8.07;;;10.60;51.00;;;;;;5053590;28;20029;-54
2022/03/28 05:12:27;;;;;;;18.85;8.50;;;10.60;51.00;;;;;;5058482;28;20032;-54
2022/03/28 05:14:54;;;;;;;18.55;8.18;;;10.70;51.20;;;;;;5070828;28;20111;-47
2022/03/28 05:17:29;;;;;;;16.63;8.77;;;10.70;51.30;;;;;;5069939;28;20504;-56
2022/03/28 05:19:57;;;;;;;17.77;9.20;;;10.70;51.40;;;;;;5061908;28;20033;-54
2022/03/28 05:22:23;;;;;;;26.38;9.48;;;10.70;51.60;;;;;;5064831;28;20035;-60
2022/03/28 05:24:51;;;;;;;22.80;9.43;;;10.70;51.60;;;;;;5067976;28;20051;-53
2022/03/28 05:27:17;;;;;;;29.15;10.15;;;10.80;51.60;;;;;;5057827;28;20025;-63
2022/03/28 05:29:43;;;;;;;23.70;11.73;;;10.80;51.60;;;;;;5043207;28;20036;-52
2022/03/28 05:32:09;;;;;;;23.80;12.18;;;10.80;51.70;;;;;;5069032;28;20032;-54
2022/03/28 05:34:35;;;;;;;34.20;13.32;;;10.80;51.80;;;;;;5051273;28;20048;-55
2022/03/28 05:37:05;;;;;;;34.63;13.38;;;10.80;52.00;;;;;;5068629;28;20507;-51
2022/03/28 05:39:34;;;;;;;28.02;13.25;;;10.70;51.80;;;;;;5050521;28;20038;-49
2022/03/28 05:42:01;;;;;;;31.13;13.55;;;10.70;51.80;;;;;;5066266;28;20036;-53
2022/03/28 05:44:27;;;;;;;30.08;13.93;;;10.70;51.90;;;;;;5051289;28;20104;-47
2022/03/28 05:46:53;;;;;;;32.50;13.85;;;10.60;52.00;;;;;;5069899;28;20116;-55
2022/03/28 05:49:25;;;;;;;26.67;13.43;;;10.60;51.90;;;;;;5069593;28;20029;-62
2022/03/28 05:51:52;;;;;;;34.83;14.23;;;10.60;52.00;;;;;;5070664;28;20086;-52
2022/03/28 05:54:19;;;;;;;31.75;13.02;;;10.60;51.70;;;;;;5052463;28;20029;-64
2022/03/28 05:56:45;;;;;;;26.02;12.00;;;10.70;51.40;;;;;;5057279;28;20111;-53
2022/03/28 05:59:11;;;;;;;33.05;11.57;;;10.90;51.00;;;;;;5065202;28;20033;-55
2022/03/28 06:01:37;;;;;;;30.55;12.38;;;10.90;50.60;;;;;;5069270;28;20493;-49
2022/03/28 06:04:04;;;;;;;29.30;13.25;;;11.10;50.40;;;;;;5070716;28;20063;-51
2022/03/28 06:06:31;;;;;;;34.78;13.13;;;11.20;50.20;;;;;;5073209;28;20036;-54
2022/03/28 06:08:57;;;;;;;39.72;10.57;;;11.30;49.80;;;;;;5072080;28;20093;-53
2022/03/28 06:11:23;;;;;;;34.72;11.05;;;11.30;47.80;;;;;;5073504;28;20429;-63
2022/03/28 06:13:49;;;;;;;52.38;11.57;;;11.40;47.40;;;;;;5074193;28;20120;-55
2022/03/28 06:18:59;;;;;;;24.83;9.63;;;11.50;45.30;;;;;;5073503;28;20039;-55
2022/03/28 06:21:25;;;;;;;42.15;10.68;;;11.60;44.30;;;;;;5054324;28;20021;-57
2022/03/28 06:23:51;;;;;;;32.70;10.60;;;11.60;44.20;;;;;;5072996;28;20476;-53
2022/03/28 06:26:18;;;;;;;29.17;10.63;;;11.60;43.70;;;;;;5072301;28;20115;-48
2022/03/28 06:28:44;;;;;;;25.40;10.02;;;11.70;43.10;;;;;;5072240;28;20517;-51
2022/03/28 06:31:10;;;;;;;33.10;10.43;;;11.80;43.30;;;;;;5072866;28;20067;-57
2022/03/28 06:33:37;;;;;;;39.25;10.30;;;11.90;42.70;;;;;;5054257;28;20075;-50
2022/03/28 06:36:04;;;;;;;22.65;9.07;;;12.00;42.20;;;;;;5056836;28;20126;-55
2022/03/28 06:38:30;;;;;;;21.15;9.23;;;12.00;42.00;;;;;;5056574;28;20473;-55
2022/03/28 06:40:57;;;;;;;26.73;10.20;;;12.00;42.00;;;;;;5061640;28;20054;-57
2022/03/28 06:43:23;;;;;;;26.67;9.98;;;12.10;42.00;;;;;;5067429;28;20493;-51
2022/03/28 06:45:50;;;;;;;33.13;10.60;;;12.20;42.10;;;;;;5068213;28;20127;-53
2022/03/28 06:48:16;;;;;;;47.80;11.90;;;12.20;42.00;;;;;;5059009;28;20029;-59
2022/03/28 06:50:42;;;;;;;39.03;10.63;;;12.20;42.30;;;;;;5038521;28;20162;-59
2022/03/28 06:53:07;;;;;;;37.40;10.52;;;12.30;41.60;;;;;;5072188;28;20476;-54
2022/03/28 06:55:33;;;;;;;46.30;10.95;;;12.30;41.20;;;;;;5053742;28;20575;-56
2022/03/28 06:57:59;;;;;;;23.75;10.27;;;12.40;41.10;;;;;;5073016;28;20035;-53
2022/03/28 07:00:24;;;;;;;44.20;10.40;;;12.50;40.60;;;;;;5071246;28;20457;-52
2022/03/28 07:02:54;;;;;;;38.80;11.90;;;12.50;41.00;;;;;;5049180;28;20595;-54
2022/03/28 07:05:19;;;;;;;32.72;10.50;;;12.60;41.30;;;;;;5069365;28;20087;-51
2022/03/28 07:07:47;;;;;;;27.17;10.35;;;12.60;41.40;;;;;;5071131;28;20063;-53
2022/03/28 07:10:19;;;;;;;33.55;11.52;;;12.60;41.80;;;;;;5048425;28;20055;-53
2022/03/28 07:12:46;;;;;;;42.33;11.15;;;12.60;42.30;;;;;;5068344;28;20020;-58
2022/03/28 07:15:13;;;;;;;65.03;14.55;;;12.70;42.60;;;;;;5047635;28;20060;-52
2022/03/28 07:17:52;;;;;;;26.48;11.68;;;12.80;42.40;;;;;;5071405;28;20027;-50
2022/03/28 07:20:19;;;;;;;46.75;13.95;;;12.80;42.30;;;;;;5065032;28;20029;-53
2022/03/28 07:22:45;;;;;;;38.72;12.45;;;13.00;42.40;;;;;;5053208;28;20071;-55
2022/03/28 07:25:11;;;;;;;35.60;13.98;;;13.40;42.20;;;;;;5053736;28;20028;-56
2022/03/28 07:27:39;;;;;;;42.92;14.77;;;14.90;42.20;;;;;;5052215;28;20036;-58
2022/03/28 07:30:06;;;;;;;33.80;14.80;;;18.80;38.20;;;;;;5072037;28;20043;-54
2022/03/28 07:32:32;;;;;;;35.15;13.73;;;22.40;32.90;;;;;;5052431;28;20032;-56
2022/03/28 07:34:57;;;;;;;23.83;12.30;;;25.40;28.90;;;;;;5064251;28;20510;-55
2022/03/28 07:37:24;;;;;;;29.67;14.27;;;27.50;27.70;;;;;;5049554;28;20036;-58
2022/03/28 07:40:00;;;;;;;41.97;14.10;;;29.70;26.30;;;;;;5067945;28;20165;-64
2022/03/28 07:42:28;;;;;;;40.83;15.48;;;31.60;24.80;;;;;;5046149;28;20036;-54
2022/03/28 07:44:56;;;;;;;23.38;12.02;;;33.30;23.70;;;;;;5064725;28;20028;-56
2022/03/28 07:47:30;;;;;;;22.30;13.18;;;34.50;23.10;;;;;;5048962;28;20481;-54
2022/03/28 07:49:57;;;;;;;20.20;12.23;;;35.20;22.10;;;;;;5050968;28;20020;-53
2022/03/28 07:52:23;;;;;;;18.52;11.27;;;35.80;21.90;;;;;;5026998;28;20033;-61
2022/03/28 07:54:50;;;;;;;19.67;12.57;;;36.60;21.50;;;;;;5046994;28;20115;-54
2022/03/28 07:57:17;;;;;;;21.33;12.20;;;37.10;20.90;;;;;;5067919;28;20037;-55
2022/03/28 07:59:46;;;;;;;25.63;12.40;;;38.00;20.80;;;;;;5038823;28;20034;-55
2022/03/28 08:02:11;;;;;;;20.45;11.88;;;39.10;20.50;;;;;;5068055;28;20078;-51
2022/03/28 08:04:37;;;;;;;16.42;12.43;;;39.60;20.20;;;;;;5061182;28;20036;-54
2022/03/28 08:07:08;;;;;;;24.08;12.18;;;40.00;19.90;;;;;;5054303;28;20111;-53
2022/03/28 08:09:38;;;;;;;32.40;14.93;;;40.50;19.70;;;;;;5052528;28;20056;-54
2022/03/28 08:12:06;;;;;;;18.80;12.38;;;41.20;19.40;;;;;;5066917;28;20024;-62
2022/03/28 08:14:32;;;;;;;20.98;12.68;;;41.80;19.30;;;;;;5068860;28;20025;-54
2022/03/28 08:16:58;;;;;;;25.95;14.02;;;41.80;19.10;;;;;;5062804;28;20059;-53
2022/03/28 08:19:25;;;;;;;21.92;12.80;;;41.90;19.10;;;;;;5067105;28;20066;-56
2022/03/28 08:21:51;;;;;;;22.50;12.98;;;41.90;19.10;;;;;;5083589;28;20031;-53
2022/03/28 08:24:17;;;;;;;20.45;13.13;;;40.80;18.90;;;;;;5072331;28;20032;-58
2022/03/28 08:26:44;;;;;;;26.00;13.40;;;40.20;19.00;;;;;;5067411;28;20068;-54
2022/03/28 08:29:09;;;;;;;28.23;12.82;;;39.90;19.00;;;;;;5071051;28;20469;-53
2022/03/28 08:31:35;;;;;;;26.90;13.45;;;39.50;19.20;;;;;;5064105;28;20032;-56
2022/03/28 08:34:01;;;;;;;37.72;14.55;;;39.40;19.10;;;;;;5069846;28;20566;-52
2022/03/28 08:36:27;;;;;;;27.48;13.63;;;39.70;19.10;;;;;;5066039;28;20453;-64
2022/03/28 08:38:53;;;;;;;36.25;13.38;;;39.70;19.00;;;;;;5049818;28;20028;-57
2022/03/28 08:41:20;;;;;;;25.83;13.93;;;38.80;19.00;;;;;;5071201;28;20033;-55
2022/03/28 08:43:46;;;;;;;28.55;13.77;;;37.90;19.20;;;;;;5048342;28;20522;-58
2022/03/28 08:46:15;;;;;;;21.50;12.85;;;36.10;19.30;;;;;;5070694;28;20028;-54
2022/03/28 08:48:42;;;;;;;24.83;13.13;;;33.60;20.30;;;;;;5069957;28;20056;-53
2022/03/28 08:51:13;;;;;;;29.67;13.43;;;31.40;21.20;;;;;;5052433;28;20437;-54
2022/03/28 08:53:40;;;;;;;22.42;13.70;;;29.80;21.90;;;;;;5069804;28;20029;-55
2022/03/28 08:56:09;;;;;;;37.55;15.00;;;28.80;22.60;;;;;;5069055;28;20071;-55
2022/03/28 08:58:35;;;;;;;22.92;13.30;;;27.90;23.20;;;;;;5070647;28;20024;-53
2022/03/28 09:01:03;;;;;;;24.55;14.00;;;26.90;23.80;;;;;;5049679;28;20113;-53
2022/03/28 09:03:47;;;;;;;21.90;13.98;;;26.10;24.50;;;;;;5068605;28;20078;-59
2022/03/28 09:06:32;;;;;;;54.88;16.15;;;25.30;25.40;;;;;;5067949;28;20050;-53
2022/03/28 09:09:16;;;;;;;26.10;14.82;;;24.10;26.50;;;;;;5066050;28;20060;-53
2022/03/28 09:11:51;;;;;;;29.55;15.50;;;23.10;27.50;;;;;;5070339;28;20485;-54
2022/03/28 09:14:35;;;;;;;21.95;13.65;;;22.60;27.90;;;;;;5049768;28;20101;-55
2022/03/28 09:17:16;;;;;;;28.33;14.52;;;22.30;28.30;;;;;;5052318;28;20108;-57
2022/03/28 09:19:55;;;;;;;27.83;14.10;;;22.00;28.60;;;;;;5053101;28;20039;-53
2022/03/28 09:22:32;;;;;;;21.38;13.50;;;21.40;29.20;;;;;;5053431;28;20028;-54
2022/03/28 09:25:11;;;;;;;22.27;13.32;;;21.10;29.70;;;;;;5070533;28;20111;-52
2022/03/28 09:27:40;;;;;;;23.17;13.38;;;20.80;30.20;;;;;;5044318;28;20122;-51
2022/03/28 09:30:17;;;;;;;27.60;14.68;;;20.40;30.40;;;;;;5052865;28;20029;-57
2022/03/28 09:32:52;;;;;;;40.30;16.13;;;20.30;30.90;;;;;;5038331;28;20033;-52
2022/03/28 09:35:21;;;;;;;25.17;13.63;;;20.20;30.90;;;;;;5053029;28;20123;-57
2022/03/28 09:38:01;;;;;;;26.13;14.40;;;20.10;31.00;;;;;;5069966;28;20064;-53
2022/03/28 09:40:45;;;;;;;28.98;13.38;;;20.10;31.10;;;;;;5074964;28;20029;-56
2022/03/28 09:43:23;;;;;;;25.95;14.00;;;20.10;31.90;;;;;;5074455;28;20374;-52
2022/03/28 09:45:52;;;;;;;32.05;14.80;;;19.90;32.40;;;;;;5074165;28;20078;-55
2022/03/28 09:48:19;;;;;;;23.92;13.07;;;19.90;32.50;;;;;;5074096;28;20086;-51
2022/03/28 09:50:59;;;;;;;23.85;13.18;;;19.90;33.10;;;;;;5073195;28;20034;-56
2022/03/28 09:53:31;;;;;;;21.92;14.10;;;19.70;34.10;;;;;;5055437;28;20060;-51
2022/03/28 09:56:15;;;;;;;21.50;13.77;;;19.50;33.90;;;;;;5073819;28;20477;-56
2022/03/28 09:58:48;;;;;;;22.92;13.80;;;19.40;34.20;;;;;;5055810;28;20473;-55
2022/03/28 10:01:30;;;;;;;23.10;13.98;;;19.40;34.50;;;;;;5055677;28;20021;-54
2022/03/28 10:04:01;;;;;;;27.73;14.05;;;19.40;34.80;;;;;;5071440;28;20029;-54
2022/03/28 10:06:28;;;;;;;25.33;14.95;;;19.40;34.90;;;;;;5052819;28;20055;-59
2022/03/28 10:08:53;;;;;;;22.25;13.40;;;19.50;35.00;;;;;;5069259;28;20197;-54
2022/03/28 10:11:19;;;;;;;22.60;14.38;;;19.50;35.20;;;;;;5065358;28;20028;-52
2022/03/28 10:13:47;;;;;;;28.35;14.60;;;19.60;35.40;;;;;;5038592;28;20021;-52
2022/03/28 10:16:13;;;;;;;20.63;13.48;;;19.70;35.40;;;;;;5055468;28;20395;-54
2022/03/28 10:18:41;;;;;;;18.30;13.68;;;19.70;35.60;;;;;;5051842;28;20035;-50
2022/03/28 10:21:15;;;;;;;20.13;13.60;;;19.60;35.90;;;;;;5063795;28;20012;-56
2022/03/28 10:24:03;;;;;;;21.35;14.52;;;19.60;36.10;;;;;;5055200;28;20108;-56
2022/03/28 10:26:33;;;;;;;20.55;13.85;;;19.70;36.30;;;;;;5073425;28;20031;-59
2022/03/28 10:29:04;;;;;;;18.65;12.68;;;19.60;36.10;;;;;;5048931;28;20346;-57
2022/03/28 10:31:34;;;;;;;31.65;16.77;;;19.80;36.10;;;;;;5064580;28;20110;-56
2022/03/28 10:34:00;;;;;;;17.85;13.88;;;19.90;36.10;;;;;;5064419;28;20110;-56
2022/03/28 10:36:35;;;;;;;21.88;13.65;;;19.90;36.00;;;;;;5061611;28;20045;-56
2022/03/28 10:39:31;;;;;;;22.90;13.60;;;19.80;36.40;;;;;;5053754;28;20483;-49
2022/03/28 10:42:08;;;;;;;20.90;14.20;;;19.60;37.10;;;;;;5050874;28;20035;-52
2022/03/28 10:44:46;;;;;;;17.38;12.98;;;19.70;36.90;;;;;;5038381;28;20020;-54
2022/03/28 10:47:14;;;;;;;21.00;12.95;;;19.90;36.70;;;;;;5054761;28;20477;-55
2022/03/28 10:49:45;;;;;;;21.00;12.10;;;19.90;36.50;;;;;;5063872;28;20032;-54
2022/03/28 10:52:14;;;;;;;20.35;13.98;;;20.00;36.60;;;;;;5053732;28;20042;-52
2022/03/28 10:54:40;;;;;;;25.95;13.60;;;20.10;36.50;;;;;;5053443;28;20347;-56
2022/03/28 10:57:27;;;;;;;19.40;12.88;;;20.20;36.50;;;;;;5071848;28;20063;-58
2022/03/28 11:00:12;;;;;;;33.53;13.98;;;20.10;36.50;;;;;;5071982;28;20041;-57
2022/03/28 11:02:39;;;;;;;18.77;12.30;;;20.10;36.60;;;;;;5040039;28;20147;-52
2022/03/28 11:05:12;;;;;;;22.63;12.95;;;20.30;36.50;;;;;;5053307;28;20473;-52
2022/03/28 11:07:38;;;;;;;;;;;20.30;36.50;;;;;;5071845;28;20027;-57
2022/03/28 11:10:10;;;;;;;19.98;12.60;;;20.40;36.40;;;;;;5054328;28;19991;-53
2022/03/28 11:12:40;;;;;;;23.05;13.45;;;20.50;36.40;;;;;;5072361;28;20074;-56
2022/03/28 11:15:12;;;;;;;25.73;13.93;;;20.50;36.20;;;;;;5054697;28;20024;-56
2022/03/28 11:17:52;;;;;;;20.83;12.95;;;20.60;36.30;;;;;;5071916;28;20058;-66
2022/03/28 11:20:18;;;;;;;18.20;12.82;;;20.70;36.20;;;;;;5049663;28;20041;-57
2022/03/28 11:22:54;;;;;;;22.58;13.05;;;20.80;36.00;;;;;;5071794;28;20035;-54
2022/03/28 11:25:35;;;;;;;20.02;12.77;;;20.90;36.00;;;;;;5048132;28;20123;-49
2022/03/28 11:28:08;;;;;;;18.38;12.32;;;20.80;36.00;;;;;;5053988;28;20024;-50
2022/03/28 11:30:50;;;;;;;19.83;13.55;;;20.70;36.10;;;;;;5054816;28;20123;-56
2022/03/28 11:33:28;;;;;;;18.08;12.75;;;20.70;36.10;;;;;;5053700;28;20039;-55
2022/03/28 11:36:21;;;;;;;24.88;15.60;;;20.90;36.00;;;;;;5053857;28;20032;-53
2022/03/28 11:38:49;;;;;;;19.65;12.63;;;21.00;35.80;;;;;;5049606;28;20044;-53
2022/03/28 11:41:16;;;;;;;26.08;13.60;;;21.20;35.60;;;;;;5053767;28;20035;-58
2022/03/28 11:43:51;;;;;;;20.02;12.57;;;21.30;35.50;;;;;;5071090;28;20114;-53
2022/03/28 11:46:24;;;;;;;18.08;13.80;;;21.30;35.30;;;;;;5071658;28;20032;-53
2022/03/28 11:48:58;;;;;;;22.33;13.77;;;21.30;35.20;;;;;;5053115;28;20040;-57
2022/03/28 11:51:28;;;;;;;43.03;15.48;;;21.40;35.20;;;;;;5053950;28;20039;-53
2022/03/28 11:53:54;;;;;;;22.85;13.38;;;21.50;35.00;;;;;;5071020;28;20027;-51
2022/03/28 11:56:32;;;;;;;19.45;12.07;;;21.40;35.00;;;;;;5053180;28;20060;-50
2022/03/28 11:59:04;;;;;;;22.70;13.38;;;21.50;35.00;;;;;;5070897;28;20047;-49
2022/03/28 12:01:31;;;;;;;19.52;13.43;;;21.50;34.80;;;;;;5052376;28;20029;-49
2022/03/28 12:03:57;;;;;;;17.20;13.35;;;21.60;34.80;;;;;;5053303;28;20123;-50
2022/03/28 12:06:30;;;;;;;26.63;14.82;;;21.50;34.70;;;;;;5053285;28;20090;-51
2022/03/28 12:08:56;;;;;;;22.95;12.80;;;21.50;34.80;;;;;;5052916;28;20028;-50
2022/03/28 12:11:23;;;;;;;31.00;15.57;;;21.70;34.70;;;;;;5053551;28;20032;-53
2022/03/28 12:13:50;;;;;;;19.45;12.95;;;21.80;34.60;;;;;;5052531;28;20051;-55
2022/03/28 12:16:16;;;;;;;21.20;13.93;;;22.00;34.40;;;;;;5052997;28;20036;-52
2022/03/28 12:18:44;;;;;;;19.67;12.10;;;22.00;34.40;;;;;;5070603;28;20078;-57
2022/03/28 12:21:10;;;;;;;19.73;12.10;;;21.90;34.40;;;;;;5053217;28;20020;-56
2022/03/28 12:23:37;;;;;;;19.23;13.10;;;21.90;34.50;;;;;;5071864;28;20108;-55
2022/03/28 12:26:04;;;;;;;22.63;13.32;;;22.00;34.40;;;;;;5052282;28;20277;-56
2022/03/28 12:28:48;;;;;;;24.85;14.40;;;22.10;34.20;;;;;;5049703;28;20025;-56
2022/03/28 12:31:15;;;;;;;;;;;22.10;34.00;;;;;;5053476;28;20024;-52
2022/03/28 12:33:46;;;;;;;23.52;12.82;;;22.30;33.40;;;;;;5069522;28;19950;-55
2022/03/28 12:36:21;;;;;;;22.40;13.23;;;22.40;33.40;;;;;;5036831;28;20354;-56
2022/03/28 12:39:00;;;;;;;16.17;12.13;;;22.40;34.10;;;;;;5052633;28;20036;-55
2022/03/28 12:41:27;;;;;;;22.65;12.60;;;22.40;33.50;;;;;;5064206;28;20108;-53
2022/03/28 12:43:53;;;;;;;18.08;12.35;;;22.20;33.70;;;;;;5069980;28;20025;-55
2022/03/28 12:46:21;;;;;;;17.85;12.88;;;22.20;33.70;;;;;;5048383;28;20028;-53
2022/03/28 12:48:53;;;;;;;27.67;13.35;;;22.20;34.30;;;;;;5035249;28;20114;-56